createdAt,value
2023-10-20T00:01:02.272Z,8.90
2023-10-20T00:03:31.030Z,8.80
2023-10-20T00:06:01.005Z,8.77
2023-10-20T00:08:30.587Z,9.17
2023-10-20T00:11:07.106Z,9.43
2023-10-20T00:13:35.695Z,9.90
2023-10-20T00:16:04.983Z,9.53
2023-10-20T00:18:34.996Z,10.07
2023-10-20T00:21:03.163Z,9.87
2023-10-20T00:23:34.151Z,9.90
2023-10-20T00:26:06.428Z,9.57
2023-10-20T00:28:37.398Z,10.17
2023-10-20T00:31:07.039Z,10.20
2023-10-20T00:33:35.178Z,9.40
2023-10-20T00:36:05.507Z,10.20
2023-10-20T00:38:38.613Z,9.10
2023-10-20T00:41:08.009Z,9.97
2023-10-20T00:43:38.036Z,9.70
2023-10-20T00:46:11.490Z,10.07
2023-10-20T00:48:41.076Z,9.90
2023-10-20T00:51:10.562Z,9.63
2023-10-20T00:53:41.748Z,10.23
2023-10-20T00:56:16.185Z,9.77
2023-10-20T00:58:44.457Z,9.57
2023-10-20T01:01:14.111Z,9.97
2023-10-20T01:03:46.001Z,9.90
2023-10-20T01:06:16.299Z,10.00
2023-10-20T01:08:45.964Z,9.80
2023-10-20T01:11:21.119Z,9.47
2023-10-20T01:13:50.082Z,9.83
2023-10-20T01:16:19.758Z,9.73
2023-10-20T01:18:50.028Z,9.73
2023-10-20T01:21:22.113Z,9.10
2023-10-20T01:23:56.110Z,9.20
2023-10-20T01:26:24.551Z,9.33
2023-10-20T01:28:54.009Z,8.97
2023-10-20T01:31:25.006Z,9.33
2023-10-20T01:33:53.909Z,9.00
2023-10-20T01:36:23.025Z,8.83
2023-10-20T01:38:53.367Z,9.40
2023-10-20T01:41:26.163Z,9.30
2023-10-20T01:43:55.210Z,8.57
2023-10-20T01:46:23.320Z,8.97
2023-10-20T01:48:52.077Z,9.00
2023-10-20T01:51:25.606Z,8.83
2023-10-20T01:53:54.994Z,9.20
2023-10-20T01:56:24.120Z,8.80
2023-10-20T01:58:53.080Z,8.07
2023-10-20T02:01:25.077Z,8.87
2023-10-20T02:03:53.342Z,8.60
2023-10-20T02:06:21.977Z,8.50
2023-10-20T02:08:51.052Z,8.17
2023-10-20T02:11:20.132Z,8.07
2023-10-20T02:13:49.727Z,7.87
2023-10-20T02:16:24.173Z,8.03
2023-10-20T02:18:52.884Z,7.73
2023-10-20T02:21:30.054Z,8.10
2023-10-20T02:24:02.803Z,8.30
2023-10-20T02:29:23.894Z,8.53
2023-10-20T02:31:54.037Z,8.37
2023-10-20T02:34:24.076Z,8.27
2023-10-20T02:36:54.332Z,8.43
2023-10-20T02:39:23.977Z,8.30
2023-10-20T02:41:52.906Z,8.13
2023-10-20T02:44:21.142Z,8.30
2023-10-20T02:46:50.101Z,7.87
2023-10-20T02:49:24.414Z,7.90
2023-10-20T02:51:52.590Z,7.83
2023-10-20T02:54:20.905Z,7.43
2023-10-20T02:56:50.421Z,7.77
2023-10-20T02:59:19.252Z,7.77
2023-10-20T03:01:47.535Z,7.30
2023-10-20T03:04:22.177Z,7.87
2023-10-20T03:06:50.615Z,7.07
2023-10-20T03:09:20.057Z,6.70
2023-10-20T03:11:48.265Z,6.63
2023-10-20T03:14:20.813Z,6.00
2023-10-20T03:16:51.064Z,6.17
2023-10-20T03:19:21.142Z,6.00
2023-10-20T03:21:55.549Z,6.07
2023-10-20T03:24:23.776Z,6.00
2023-10-20T03:26:52.174Z,5.57
2023-10-20T03:29:20.578Z,5.83
2023-10-20T03:31:48.806Z,4.93
2023-10-20T03:34:22.456Z,6.03
2023-10-20T03:36:53.276Z,5.27
2023-10-20T03:39:23.075Z,5.63
2023-10-20T03:41:52.059Z,5.20
2023-10-20T03:44:22.850Z,5.00
2023-10-20T03:46:58.253Z,4.43
2023-10-20T03:49:29.717Z,4.33
2023-10-20T03:52:04.131Z,4.10
2023-10-20T03:54:35.065Z,4.03
2023-10-20T03:57:10.166Z,3.83
2023-10-20T03:59:39.674Z,3.17
2023-10-20T04:02:08.994Z,2.90
2023-10-20T04:04:40.377Z,2.80
2023-10-20T04:07:08.748Z,2.70
2023-10-20T04:09:39.127Z,2.17
2023-10-20T04:12:08.323Z,2.00
2023-10-20T04:14:36.621Z,1.90
2023-10-20T04:17:05.407Z,2.20
2023-10-20T04:19:39.563Z,2.13
2023-10-20T04:22:14.263Z,1.90
2023-10-20T04:24:47.385Z,2.20
2023-10-20T04:27:23.091Z,2.00
2023-10-20T04:30:05.119Z,1.73
2023-10-20T04:32:52.162Z,1.90
2023-10-20T04:35:37.680Z,2.07
2023-10-20T04:38:26.181Z,2.10
2023-10-20T04:41:12.014Z,1.70
2023-10-20T04:43:44.176Z,1.87
2023-10-20T04:46:51.833Z,1.83
2023-10-20T04:49:35.124Z,2.10
2023-10-20T04:52:19.132Z,1.90
2023-10-20T04:54:52.150Z,1.80
2023-10-20T04:57:51.753Z,1.90
2023-10-20T05:00:41.434Z,2.17
2023-10-20T05:03:24.115Z,2.17
2023-10-20T05:05:59.684Z,1.93
2023-10-20T05:08:28.648Z,2.17
2023-10-20T05:10:58.430Z,2.10
2023-10-20T05:13:27.225Z,2.10
2023-10-20T05:15:55.496Z,3.27
2023-10-20T05:18:23.793Z,2.67
2023-10-20T05:20:51.977Z,1.87
2023-10-20T05:23:22.140Z,2.00
2023-10-20T05:25:53.713Z,1.73
2023-10-20T05:28:25.074Z,2.10
2023-10-20T05:30:53.262Z,2.00
2023-10-20T05:33:21.648Z,2.00
2023-10-20T05:35:50.359Z,1.70
2023-10-20T05:38:18.661Z,1.80
2023-10-20T05:40:57.344Z,1.87
2023-10-20T05:43:27.404Z,1.97
2023-10-20T05:45:56.140Z,1.80
2023-10-20T05:48:24.356Z,1.77
2023-10-20T05:50:59.223Z,1.80
2023-10-20T05:53:31.357Z,1.83
2023-10-20T05:56:00.006Z,2.03
2023-10-20T05:58:31.105Z,1.90
2023-10-20T06:01:06.232Z,2.00
2023-10-20T06:03:36.184Z,1.90
2023-10-20T06:06:05.531Z,2.23
2023-10-20T06:08:33.762Z,2.03
2023-10-20T06:11:07.996Z,1.90
2023-10-20T06:13:40.656Z,2.37
2023-10-20T06:16:12.356Z,1.93
2023-10-20T06:18:45.545Z,2.07
2023-10-20T06:21:15.772Z,1.90
2023-10-20T06:23:44.104Z,2.67
2023-10-20T06:26:13.775Z,2.30
2023-10-20T06:28:48.796Z,2.30
2023-10-20T06:31:44.436Z,2.40
2023-10-20T06:34:24.155Z,2.23
2023-10-20T06:37:00.481Z,2.23
2023-10-20T06:39:28.927Z,2.50
2023-10-20T06:42:01.375Z,2.10
2023-10-20T06:44:32.142Z,2.43
2023-10-20T06:49:53.924Z,2.70
2023-10-20T06:52:22.041Z,2.70
2023-10-20T06:55:15.987Z,2.70
2023-10-20T06:57:40.281Z,2.90
2023-10-20T07:00:21.624Z,2.53
2023-10-20T07:02:49.930Z,2.70
2023-10-20T07:05:19.711Z,2.93
2023-10-20T07:07:48.133Z,2.90
2023-10-20T07:10:19.083Z,3.70
2023-10-20T07:12:47.349Z,3.20
2023-10-20T07:15:18.696Z,2.97
2023-10-20T07:17:46.897Z,2.70
2023-10-20T07:20:15.139Z,3.27
2023-10-20T07:22:44.232Z,3.10
2023-10-20T07:25:15.184Z,2.93
2023-10-20T07:27:44.299Z,2.67
2023-10-20T07:30:14.194Z,3.33
2023-10-20T07:32:44.256Z,3.00
2023-10-20T07:35:14.138Z,2.73
2023-10-20T07:37:45.412Z,2.73
2023-10-20T07:40:15.206Z,3.50
2023-10-20T07:42:49.250Z,2.97
2023-10-20T07:45:20.276Z,2.93
2023-10-20T07:47:50.141Z,3.33
2023-10-20T07:50:20.656Z,3.47
2023-10-20T07:52:49.079Z,3.10
2023-10-20T07:55:21.470Z,4.77
2023-10-20T07:57:49.643Z,4.47
2023-10-20T08:00:19.944Z,3.40
2023-10-20T08:02:53.985Z,3.20
2023-10-20T08:05:27.079Z,3.40
2023-10-20T08:07:56.182Z,3.80
2023-10-20T08:10:24.419Z,3.77
2023-10-20T08:12:54.528Z,3.43
2023-10-20T08:15:29.021Z,3.90
2023-10-20T08:18:02.167Z,4.30
2023-10-20T08:20:34.263Z,4.13
2023-10-20T08:23:02.702Z,4.53
2023-10-20T08:25:31.038Z,4.07
2023-10-20T08:27:59.872Z,4.13
2023-10-20T08:30:31.199Z,5.50
2023-10-20T08:33:05.144Z,5.40
2023-10-20T08:35:33.699Z,4.40
2023-10-20T08:38:01.868Z,4.40
2023-10-20T08:40:41.882Z,4.03
2023-10-20T08:43:19.797Z,4.10
2023-10-20T08:45:49.216Z,4.37
2023-10-20T08:48:18.971Z,4.30
2023-10-20T08:50:50.994Z,4.37
2023-10-20T08:53:22.991Z,4.50
2023-10-20T08:55:51.849Z,4.33
2023-10-20T08:58:20.130Z,4.30
2023-10-20T09:00:57.937Z,4.57
2023-10-20T09:03:30.996Z,4.93
2023-10-20T09:06:06.667Z,5.50
2023-10-20T09:08:41.171Z,7.70
2023-10-20T09:11:10.996Z,4.80
2023-10-20T09:13:41.314Z,4.70
2023-10-20T09:16:12.178Z,5.00
2023-10-20T09:18:48.112Z,4.27
2023-10-20T09:21:17.319Z,4.37
2023-10-20T09:24:03.591Z,4.50
2023-10-20T09:26:36.062Z,4.40
2023-10-20T09:29:09.248Z,9.33
2023-10-20T09:31:42.588Z,5.73
2023-10-20T09:34:12.878Z,4.20
2023-10-20T09:36:46.208Z,3.70
2023-10-20T09:39:21.071Z,3.70
2023-10-20T09:41:53.044Z,3.80
2023-10-20T09:44:28.309Z,3.73
2023-10-20T09:46:58.760Z,3.50
2023-10-20T09:49:32.301Z,2.90
2023-10-20T09:52:00.569Z,2.97
2023-10-20T09:54:31.748Z,3.20
2023-10-20T09:57:03.284Z,3.10
2023-10-20T09:59:35.651Z,13.07
2023-10-20T10:02:04.152Z,4.17
2023-10-20T10:04:39.011Z,3.00
2023-10-20T10:07:09.617Z,3.70
2023-10-20T10:09:39.088Z,3.40
2023-10-20T10:12:12.427Z,3.47
2023-10-20T10:14:40.825Z,2.93
2023-10-20T10:17:12.266Z,3.73
2023-10-20T10:19:52.163Z,4.00
2023-10-20T10:22:28.285Z,3.50
2023-10-20T10:24:57.586Z,3.50
2023-10-20T10:27:29.273Z,3.70
2023-10-20T10:30:02.540Z,3.60
2023-10-20T10:32:36.290Z,3.40
2023-10-20T10:35:08.844Z,3.77
2023-10-20T10:37:39.227Z,3.93
2023-10-20T10:40:10.536Z,3.90
2023-10-20T10:42:44.601Z,4.70
2023-10-20T10:45:22.765Z,4.20
2023-10-20T10:48:17.845Z,14.50
2023-10-20T10:50:49.127Z,6.10
2023-10-20T10:53:18.247Z,4.43
2023-10-20T10:55:47.172Z,3.93
2023-10-20T10:58:16.832Z,4.07
2023-10-20T11:00:47.378Z,4.20
2023-10-20T11:03:21.372Z,4.33
2023-10-20T11:05:53.492Z,3.77
2023-10-20T11:08:21.866Z,3.97
2023-10-20T11:10:52.090Z,3.90
2023-10-20T11:13:22.221Z,3.37
2023-10-20T11:15:52.375Z,3.77
2023-10-20T11:18:21.726Z,3.90
2023-10-20T11:20:57.494Z,3.70
2023-10-20T11:23:31.326Z,3.37
2023-10-20T11:26:03.145Z,3.83
2023-10-20T11:28:31.937Z,3.33
2023-10-20T11:31:00.636Z,3.90
2023-10-20T11:33:29.200Z,3.90
2023-10-20T11:36:03.485Z,4.33
2023-10-20T11:38:34.476Z,4.47
2023-10-20T11:41:02.949Z,4.60
2023-10-20T11:43:32.473Z,4.60
2023-10-20T11:46:00.767Z,4.27
2023-10-20T11:48:29.129Z,4.53
2023-10-20T11:50:58.847Z,4.70
2023-10-20T11:53:27.017Z,4.70
2023-10-20T11:55:55.958Z,3.87
2023-10-20T11:58:25.131Z,4.53
2023-10-20T12:00:53.324Z,4.00
2023-10-20T12:03:21.840Z,4.27
2023-10-20T12:05:50.128Z,4.37
2023-10-20T12:08:19.995Z,4.60
2023-10-20T12:10:51.343Z,4.23
2023-10-20T12:13:19.521Z,4.37
2023-10-20T12:15:49.344Z,4.07
2023-10-20T12:18:17.686Z,4.33
2023-10-20T12:20:51.531Z,4.20
2023-10-20T12:23:21.238Z,4.10
2023-10-20T12:25:49.558Z,5.53
2023-10-20T12:28:18.344Z,13.70
2023-10-20T12:30:47.462Z,5.03
2023-10-20T12:33:19.771Z,4.40
2023-10-20T12:35:48.123Z,3.93
2023-10-20T12:38:17.789Z,3.97
2023-10-20T12:40:47.614Z,4.20
2023-10-20T12:43:16.293Z,4.43
2023-10-20T12:45:45.325Z,4.50
2023-10-20T12:48:14.673Z,4.30
2023-10-20T12:50:42.967Z,4.27
2023-10-20T12:53:11.286Z,4.20
2023-10-20T12:55:39.513Z,4.20
2023-10-20T12:58:09.773Z,4.13
2023-10-20T13:00:41.220Z,4.37
2023-10-20T13:03:09.588Z,4.43
2023-10-20T13:05:38.196Z,3.63
2023-10-20T13:08:07.108Z,4.73
2023-10-20T13:10:35.311Z,9.70
2023-10-20T13:13:10.698Z,5.50
2023-10-20T13:15:40.400Z,4.33
2023-10-20T13:18:09.975Z,3.70
2023-10-20T13:20:38.384Z,4.53
2023-10-20T13:23:11.564Z,4.60
2023-10-20T13:25:39.876Z,4.17
2023-10-20T13:28:09.837Z,4.50
2023-10-20T13:30:39.516Z,4.30
2023-10-20T13:33:09.364Z,3.53
2023-10-20T13:35:38.607Z,12.60
2023-10-20T13:38:18.008Z,7.33
2023-10-20T13:40:47.910Z,3.90
2023-10-20T13:43:17.456Z,3.90
2023-10-20T13:45:45.658Z,4.03
2023-10-20T13:48:13.920Z,4.00
2023-10-20T13:50:42.077Z,3.90
2023-10-20T13:53:14.073Z,3.90
2023-10-20T13:55:45.928Z,3.60
2023-10-20T13:58:15.285Z,3.80
2023-10-20T14:00:47.994Z,3.67
2023-10-20T14:03:16.337Z,3.60
2023-10-20T14:05:53.731Z,4.00
2023-10-20T14:08:22.041Z,3.77
2023-10-20T14:10:50.551Z,4.03
2023-10-20T14:13:22.049Z,3.70
2023-10-20T14:15:51.728Z,7.00
2023-10-20T14:18:23.228Z,8.50
2023-10-20T14:20:51.988Z,4.07
2023-10-20T14:23:23.164Z,3.57
2023-10-20T14:25:57.863Z,3.73
2023-10-20T14:28:32.700Z,4.00
2023-10-20T14:31:02.280Z,3.83
2023-10-20T14:33:31.706Z,3.80
2023-10-20T14:36:00.510Z,3.80
2023-10-20T14:38:29.536Z,4.27
2023-10-20T14:41:03.177Z,4.10
2023-10-20T14:43:33.520Z,4.23
2023-10-20T14:46:07.259Z,4.20
2023-10-20T14:48:37.124Z,4.27
2023-10-20T14:51:10.396Z,4.17
2023-10-20T14:53:42.160Z,4.13
2023-10-20T14:56:17.619Z,3.90
2023-10-20T14:58:47.035Z,4.27
2023-10-20T15:01:16.568Z,3.60
2023-10-20T15:03:46.486Z,3.73
2023-10-20T15:06:16.426Z,3.70
2023-10-20T15:08:46.408Z,3.97
2023-10-20T15:11:15.783Z,3.73
2023-10-20T15:13:46.225Z,4.20
2023-10-20T15:16:22.997Z,4.47
2023-10-20T15:18:52.723Z,9.83
2023-10-20T15:21:23.502Z,5.30
2023-10-20T15:23:54.065Z,4.63
2023-10-20T15:26:22.624Z,4.37
2023-10-20T15:28:50.867Z,4.47
2023-10-20T15:31:20.452Z,4.83
2023-10-20T15:33:50.442Z,4.40
2023-10-20T15:36:18.637Z,5.40
2023-10-20T15:38:49.711Z,4.70
2023-10-20T15:41:20.373Z,4.97
2023-10-20T15:43:48.501Z,4.47
2023-10-20T15:46:18.370Z,4.40
2023-10-20T15:48:46.585Z,4.63
2023-10-20T15:51:19.247Z,4.67
2023-10-20T15:53:48.515Z,4.50
2023-10-20T15:56:16.746Z,4.30
2023-10-20T15:58:46.382Z,4.30
2023-10-20T16:01:15.227Z,4.63
2023-10-20T16:03:45.571Z,4.20
2023-10-20T16:06:13.812Z,4.97
2023-10-20T16:08:43.696Z,4.80
2023-10-20T16:11:13.421Z,4.60
2023-10-20T16:13:41.616Z,4.33
2023-10-20T16:16:10.315Z,4.73
2023-10-20T16:18:39.505Z,4.53
2023-10-20T16:21:07.843Z,4.33
2023-10-20T16:23:37.187Z,4.43
2023-10-20T16:26:09.243Z,4.50
2023-10-20T16:28:39.288Z,4.30
2023-10-20T16:31:07.519Z,4.70
2023-10-20T16:33:36.489Z,4.20
2023-10-20T16:36:09.607Z,4.90
2023-10-20T16:38:37.947Z,3.97
2023-10-20T16:41:07.138Z,4.47
2023-10-20T16:43:36.750Z,4.50
2023-10-20T16:46:07.447Z,5.00
2023-10-20T16:48:35.860Z,4.40
2023-10-20T16:51:04.428Z,4.70
2023-10-20T16:53:35.559Z,4.77
2023-10-20T16:56:04.668Z,4.20
2023-10-20T16:58:34.388Z,3.93
2023-10-20T17:01:08.659Z,5.70
2023-10-20T17:03:37.481Z,5.70
2023-10-20T17:06:06.819Z,4.40
2023-10-20T17:08:36.416Z,4.33
2023-10-20T17:11:05.340Z,4.80
2023-10-20T17:13:34.545Z,4.63
2023-10-20T17:16:07.545Z,5.20
2023-10-20T17:18:36.556Z,4.57
2023-10-20T17:21:09.657Z,4.60
2023-10-20T17:23:39.476Z,4.37
2023-10-20T17:26:08.137Z,4.67
2023-10-20T17:28:37.822Z,4.30
2023-10-20T17:31:09.172Z,4.40
2023-10-20T17:33:37.621Z,4.07
2023-10-20T17:36:08.232Z,4.37
2023-10-20T17:38:38.510Z,4.17
2023-10-20T17:41:08.730Z,4.07
2023-10-20T17:43:38.429Z,5.03
2023-10-20T17:46:09.448Z,4.90
2023-10-20T17:48:38.685Z,4.20
2023-10-20T17:51:07.542Z,4.20
2023-10-20T17:53:36.356Z,4.20
2023-10-20T17:56:06.103Z,4.00
2023-10-20T17:58:34.827Z,4.40
2023-10-20T18:01:09.544Z,4.70
2023-10-20T18:03:44.821Z,4.60
2023-10-20T18:06:17.988Z,4.70
2023-10-20T18:08:50.874Z,4.30
2023-10-20T18:11:21.188Z,5.03
2023-10-20T18:13:52.071Z,9.83
2023-10-20T18:16:23.545Z,10.37
2023-10-20T18:18:54.620Z,5.10
2023-10-20T18:21:25.370Z,4.77
2023-10-20T18:23:56.835Z,4.90
2023-10-20T18:26:25.450Z,5.80
2023-10-20T18:28:55.578Z,4.90
2023-10-20T18:31:25.161Z,5.03
2023-10-20T18:33:59.490Z,4.57
2023-10-20T18:36:30.450Z,5.40
2023-10-20T18:38:58.891Z,6.10
2023-10-20T18:41:28.384Z,7.87
2023-10-20T18:44:00.294Z,7.47
2023-10-20T18:46:30.490Z,8.00
2023-10-20T18:49:00.490Z,7.80
2023-10-20T18:51:30.437Z,16.43
2023-10-20T18:53:58.957Z,15.80
2023-10-20T18:56:27.205Z,7.73
2023-10-20T18:58:55.561Z,8.13
2023-10-20T19:01:23.859Z,6.27
2023-10-20T19:03:54.486Z,6.30
2023-10-20T19:06:25.267Z,5.97
2023-10-20T19:08:56.573Z,5.97
2023-10-20T19:11:27.569Z,4.83
2023-10-20T19:13:55.767Z,4.60
2023-10-20T19:16:24.622Z,4.67
2023-10-20T19:18:54.215Z,4.37
2023-10-20T19:21:24.028Z,3.80
2023-10-20T19:23:55.467Z,4.03
2023-10-20T19:26:23.790Z,3.73
2023-10-20T19:28:52.190Z,3.73
2023-10-20T19:31:20.637Z,3.47
2023-10-20T19:33:51.645Z,3.70
2023-10-20T19:36:25.616Z,3.43
2023-10-20T19:38:54.469Z,3.90
2023-10-20T19:41:22.690Z,3.40
2023-10-20T19:43:53.288Z,3.80
2023-10-20T19:46:21.502Z,3.70
2023-10-20T19:48:51.637Z,3.63
2023-10-20T19:51:21.700Z,3.63
2023-10-20T19:53:50.144Z,3.73
2023-10-20T19:56:18.463Z,3.90
2023-10-20T19:58:50.458Z,3.50
2023-10-20T20:01:21.443Z,4.07
2023-10-20T20:03:49.842Z,3.50
2023-10-20T20:06:18.448Z,3.47
2023-10-20T20:08:51.342Z,3.87
2023-10-20T20:11:20.284Z,3.80
2023-10-20T20:13:49.570Z,3.43
2023-10-20T20:16:17.749Z,3.80
2023-10-20T20:18:46.522Z,3.70
2023-10-20T20:21:19.191Z,3.20
2023-10-20T20:23:49.676Z,2.90
2023-10-20T20:26:20.579Z,3.30
2023-10-20T20:28:52.445Z,3.30
2023-10-20T20:31:20.727Z,3.13
2023-10-20T20:33:48.989Z,3.53
2023-10-20T20:36:17.202Z,3.87
2023-10-20T20:38:47.362Z,3.50
2023-10-20T20:41:17.488Z,3.30
2023-10-20T20:43:45.627Z,10.40
2023-10-20T20:46:14.513Z,5.73
2023-10-20T20:48:43.619Z,3.10
2023-10-20T20:51:12.659Z,3.10
2023-10-20T20:53:41.691Z,3.40
2023-10-20T20:56:12.481Z,3.10
2023-10-20T20:58:42.139Z,2.97
2023-10-20T21:01:11.572Z,2.90
2023-10-20T21:03:44.511Z,3.00
2023-10-20T21:06:39.377Z,2.97
2023-10-20T21:09:07.633Z,2.70
2023-10-20T21:11:37.747Z,3.10
2023-10-20T21:14:07.575Z,2.80
2023-10-20T21:16:36.435Z,3.40
2023-10-20T21:19:04.971Z,3.47
2023-10-20T21:21:34.326Z,3.10
2023-10-20T21:24:06.508Z,2.80
2023-10-20T21:26:34.966Z,2.67
2023-10-20T21:29:05.559Z,3.40
2023-10-20T21:31:35.581Z,3.23
2023-10-20T21:34:05.549Z,3.33
2023-10-20T21:36:34.526Z,2.97
2023-10-20T21:39:02.725Z,3.30
2023-10-20T21:41:31.552Z,3.37
2023-10-20T21:44:03.537Z,24.37
2023-10-20T21:46:32.536Z,4.30
2023-10-20T21:49:02.342Z,3.20
2023-10-20T21:51:30.876Z,3.40
2023-10-20T21:53:59.402Z,2.83
2023-10-20T21:56:31.462Z,3.20
2023-10-20T21:58:59.857Z,3.27
2023-10-20T22:01:28.021Z,3.50
2023-10-20T22:03:57.861Z,3.80
2023-10-20T22:06:27.702Z,3.60
2023-10-20T22:08:55.894Z,3.53
2023-10-20T22:11:27.495Z,3.37
2023-10-20T22:13:56.491Z,3.53
2023-10-20T22:16:24.676Z,3.27
2023-10-20T22:18:53.427Z,3.60
2023-10-20T22:21:22.572Z,3.50
2023-10-20T22:23:52.194Z,3.37
2023-10-20T22:26:22.280Z,3.80
2023-10-20T22:28:50.531Z,3.60
2023-10-20T22:31:20.013Z,4.03
2023-10-20T22:33:49.672Z,3.60
2023-10-20T22:36:17.992Z,3.57
2023-10-20T22:38:46.555Z,4.00
2023-10-20T22:41:17.556Z,3.97
2023-10-20T22:43:48.487Z,3.80
2023-10-20T22:46:16.678Z,4.27
2023-10-20T22:48:46.572Z,4.17
2023-10-20T22:51:15.601Z,4.03
2023-10-20T22:53:44.590Z,4.00
2023-10-20T22:56:17.509Z,3.83
2023-10-20T22:58:47.618Z,4.20
2023-10-20T23:01:18.563Z,3.83
2023-10-20T23:03:52.330Z,4.00
2023-10-20T23:06:20.974Z,4.57
2023-10-20T23:08:52.660Z,5.40
2023-10-20T23:11:23.074Z,7.27
2023-10-20T23:14:21.673Z,4.87
2023-10-20T23:16:50.546Z,4.03
2023-10-20T23:19:19.352Z,4.23
2023-10-20T23:21:50.592Z,4.47
2023-10-20T23:24:18.762Z,4.13
2023-10-20T23:26:49.321Z,4.53
2023-10-20T23:29:17.485Z,4.87
2023-10-20T23:31:46.608Z,5.30
2023-10-20T23:34:15.540Z,4.77
2023-10-20T23:36:44.096Z,4.60
2023-10-20T23:39:12.349Z,4.60
2023-10-20T23:41:41.664Z,4.47
2023-10-20T23:44:11.714Z,5.07
2023-10-20T23:46:40.635Z,4.90
2023-10-20T23:49:09.316Z,4.87
2023-10-20T23:51:37.412Z,5.20
2023-10-20T23:54:05.720Z,4.60
2023-10-20T23:56:34.058Z,4.73
2023-10-20T23:59:02.229Z,5.20
